Sakarya, Turkey
Current Conditions -  °F | °C
As of 12:50 PM on Thursday 29 Jan 2015 (Local Time) from LTBQ Reporting Station
Scattered Clouds Scattered Clouds  
Wind Chill: 10°   Ceiling: Unl
Heat Index: 10°   Visibility: 4mi
Dew Point:   Wind: 5mph
Humidity: 76%   Direction: NA
Pressure: 29.83"   Gusts: NA
Location:  40.75°N, 30.45°E
Report Text: LTBQ 290950Z VRB04KT 7000 FEW030 SCT120 10/06 Q1010 NOSIG
Loading
Personal Weather Stations






























Interactive Weather Map New forecast layout! Learn more

10-Day Weather Forecast

Advertisements
Track Severe Weather on mobile